sensor_id;sensor_type;location;lat;lon;timestamp;temperature;humidity
71436;SHT31;59251;51.326;12.370;2022-11-18T00:01:18;5.03;99.99
71436;SHT31;59251;51.326;12.370;2022-11-18T00:03:45;5.03;99.99
71436;SHT31;59251;51.326;12.370;2022-11-18T00:06:16;4.99;99.99
71436;SHT31;59251;51.326;12.370;2022-11-18T00:08:42;5.02;99.99
71436;SHT31;59251;51.326;12.370;2022-11-18T00:11:10;4.99;99.99
71436;SHT31;59251;51.326;12.370;2022-11-18T00:13:37;4.97;99.99
71436;SHT31;59251;51.326;12.370;2022-11-18T00:16:21;4.95;99.99
71436;SHT31;59251;51.326;12.370;2022-11-18T00:18:47;4.93;99.99
71436;SHT31;59251;51.326;12.370;2022-11-18T00:21:13;4.93;99.99
71436;SHT31;59251;51.326;12.370;2022-11-18T00:23:39;4.99;99.99
71436;SHT31;59251;51.326;12.370;2022-11-18T00:26:12;4.93;99.99
71436;SHT31;59251;51.326;12.370;2022-11-18T00:28:38;4.93;99.99
71436;SHT31;59251;51.326;12.370;2022-11-18T00:31:06;4.97;99.99
71436;SHT31;59251;51.326;12.370;2022-11-18T00:33:32;4.95;99.99
71436;SHT31;59251;51.326;12.370;2022-11-18T00:35:57;4.95;99.99
71436;SHT31;59251;51.326;12.370;2022-11-18T00:38:24;4.95;99.99
71436;SHT31;59251;51.326;12.370;2022-11-18T00:40:58;4.99;99.99
71436;SHT31;59251;51.326;12.370;2022-11-18T00:43:24;4.97;99.99
71436;SHT31;59251;51.326;12.370;2022-11-18T00:45:49;5.00;99.99
71436;SHT31;59251;51.326;12.370;2022-11-18T00:48:15;4.99;99.99
71436;SHT31;59251;51.326;12.370;2022-11-18T00:50:46;5.03;99.99
71436;SHT31;59251;51.326;12.370;2022-11-18T00:53:12;4.99;99.99
71436;SHT31;59251;51.326;12.370;2022-11-18T00:55:37;4.99;99.99
71436;SHT31;59251;51.326;12.370;2022-11-18T00:58:02;5.00;99.99
71436;SHT31;59251;51.326;12.370;2022-11-18T01:00:28;5.00;99.99
71436;SHT31;59251;51.326;12.370;2022-11-18T01:02:53;4.96;99.99
71436;SHT31;59251;51.326;12.370;2022-11-18T01:05:18;4.93;99.99
71436;SHT31;59251;51.326;12.370;2022-11-18T01:07:44;5.02;99.99
71436;SHT31;59251;51.326;12.370;2022-11-18T01:10:10;4.97;99.99
71436;SHT31;59251;51.326;12.370;2022-11-18T01:12:35;4.95;99.99
71436;SHT31;59251;51.326;12.370;2022-11-18T01:15:19;4.96;99.99
71436;SHT31;59251;51.326;12.370;2022-11-18T01:17:44;4.93;99.99
71436;SHT31;59251;51.326;12.370;2022-11-18T01:20:10;4.95;99.99
71436;SHT31;59251;51.326;12.370;2022-11-18T01:22:35;4.99;99.99
71436;SHT31;59251;51.326;12.370;2022-11-18T01:25:01;4.97;99.99
71436;SHT31;59251;51.326;12.370;2022-11-18T01:27:26;4.96;99.99
71436;SHT31;59251;51.326;12.370;2022-11-18T01:29:52;4.88;99.99
71436;SHT31;59251;51.326;12.370;2022-11-18T01:32:17;4.86;99.99
71436;SHT31;59251;51.326;12.370;2022-11-18T01:34:43;4.91;99.99
71436;SHT31;59251;51.326;12.370;2022-11-18T01:37:08;4.83;99.99
71436;SHT31;59251;51.326;12.370;2022-11-18T01:39:33;4.79;99.99
71436;SHT31;59251;51.326;12.370;2022-11-18T01:41:59;4.82;99.99
71436;SHT31;59251;51.326;12.370;2022-11-18T01:47:18;4.92;99.99
71436;SHT31;59251;51.326;12.370;2022-11-18T01:49:44;4.89;99.99
71436;SHT31;59251;51.326;12.370;2022-11-18T01:52:09;4.86;99.99
71436;SHT31;59251;51.326;12.370;2022-11-18T01:54:38;4.82;99.99
71436;SHT31;59251;51.326;12.370;2022-11-18T01:57:11;4.85;99.99
71436;SHT31;59251;51.326;12.370;2022-11-18T01:59:40;4.79;99.99
71436;SHT31;59251;51.326;12.370;2022-11-18T02:02:11;4.82;99.99
71436;SHT31;59251;51.326;12.370;2022-11-18T02:04:41;4.82;99.99
71436;SHT31;59251;51.326;12.370;2022-11-18T02:07:08;4.76;99.99
71436;SHT31;59251;51.326;12.370;2022-11-18T02:09:35;4.83;99.99
71436;SHT31;59251;51.326;12.370;2022-11-18T02:12:01;4.78;99.99
71436;SHT31;59251;51.326;12.370;2022-11-18T02:14:33;4.75;99.99
71436;SHT31;59251;51.326;12.370;2022-11-18T02:20:17;4.76;99.99
71436;SHT31;59251;51.326;12.370;2022-11-18T02:31:39;4.74;99.99
71436;SHT31;59251;51.326;12.370;2022-11-18T02:34:14;4.74;99.99
71436;SHT31;59251;51.326;12.370;2022-11-18T02:40:08;4.67;99.99
71436;SHT31;59251;51.326;12.370;2022-11-18T02:42:36;4.72;99.99
71436;SHT31;59251;51.326;12.370;2022-11-18T02:45:06;4.69;99.99
71436;SHT31;59251;51.326;12.370;2022-11-18T02:47:33;4.67;99.99
71436;SHT31;59251;51.326;12.370;2022-11-18T02:50:07;4.65;99.99
71436;SHT31;59251;51.326;12.370;2022-11-18T02:52:35;4.58;99.99
71436;SHT31;59251;51.326;12.370;2022-11-18T02:55:03;4.58;99.99
71436;SHT31;59251;51.326;12.370;2022-11-18T02:57:32;4.58;99.99
71436;SHT31;59251;51.326;12.370;2022-11-18T02:59:58;4.57;99.99
71436;SHT31;59251;51.326;12.370;2022-11-18T03:02:23;4.53;99.99
71436;SHT31;59251;51.326;12.370;2022-11-18T03:04:52;4.61;99.99
71436;SHT31;59251;51.326;12.370;2022-11-18T03:07:28;4.53;99.99
71436;SHT31;59251;51.326;12.370;2022-11-18T03:09:55;4.69;99.99
71436;SHT31;59251;51.326;12.370;2022-11-18T03:20:20;4.44;99.99
71436;SHT31;59251;51.326;12.370;2022-11-18T03:23:13;4.47;99.99
71436;SHT31;59251;51.326;12.370;2022-11-18T03:25:50;4.50;99.99
71436;SHT31;59251;51.326;12.370;2022-11-18T03:28:34;4.45;99.99
71436;SHT31;59251;51.326;12.370;2022-11-18T03:33:35;4.53;99.99
71436;SHT31;59251;51.326;12.370;2022-11-18T03:36:05;4.57;99.99
71436;SHT31;59251;51.326;12.370;2022-11-18T03:38:37;4.51;99.99
71436;SHT31;59251;51.326;12.370;2022-11-18T03:41:06;4.51;99.99
71436;SHT31;59251;51.326;12.370;2022-11-18T03:43:36;4.54;99.99
71436;SHT31;59251;51.326;12.370;2022-11-18T03:46:05;4.55;99.99
71436;SHT31;59251;51.326;12.370;2022-11-18T03:48:35;4.54;99.99
71436;SHT31;59251;51.326;12.370;2022-11-18T03:51:08;4.54;99.99
71436;SHT31;59251;51.326;12.370;2022-11-18T03:53:38;4.54;99.99
71436;SHT31;59251;51.326;12.370;2022-11-18T03:56:27;4.48;99.99
71436;SHT31;59251;51.326;12.370;2022-11-18T03:59:04;4.53;99.99
71436;SHT31;59251;51.326;12.370;2022-11-18T04:01:40;4.57;99.99
71436;SHT31;59251;51.326;12.370;2022-11-18T04:04:07;4.54;99.99
71436;SHT31;59251;51.326;12.370;2022-11-18T04:06:40;4.53;99.99
71436;SHT31;59251;51.326;12.370;2022-11-18T04:09:10;4.57;99.99
71436;SHT31;59251;51.326;12.370;2022-11-18T04:11:42;4.47;99.99
71436;SHT31;59251;51.326;12.370;2022-11-18T04:14:29;4.47;99.99
71436;SHT31;59251;51.326;12.370;2022-11-18T04:16:55;4.45;99.99
71436;SHT31;59251;51.326;12.370;2022-11-18T04:19:20;4.21;99.99
71436;SHT31;59251;51.326;12.370;2022-11-18T04:21:47;4.10;99.99
71436;SHT31;59251;51.326;12.370;2022-11-18T04:24:13;4.11;99.99
71436;SHT31;59251;51.326;12.370;2022-11-18T04:26:38;4.20;99.99
71436;SHT31;59251;51.326;12.370;2022-11-18T04:29:04;4.18;99.99
71436;SHT31;59251;51.326;12.370;2022-11-18T04:31:29;4.06;99.99
71436;SHT31;59251;51.326;12.370;2022-11-18T04:33:55;4.05;99.99
71436;SHT31;59251;51.326;12.370;2022-11-18T04:36:20;4.16;99.99
71436;SHT31;59251;51.326;12.370;2022-11-18T04:38:46;4.11;99.99
71436;SHT31;59251;51.326;12.370;2022-11-18T04:41:11;4.23;99.99
71436;SHT31;59251;51.326;12.370;2022-11-18T04:43:36;4.06;99.99
71436;SHT31;59251;51.326;12.370;2022-11-18T04:46:02;4.00;99.99
71436;SHT31;59251;51.326;12.370;2022-11-18T04:48:27;3.97;99.99
71436;SHT31;59251;51.326;12.370;2022-11-18T04:50:56;3.93;99.99
71436;SHT31;59251;51.326;12.370;2022-11-18T04:53:21;3.97;99.99
71436;SHT31;59251;51.326;12.370;2022-11-18T04:55:46;3.95;99.99
71436;SHT31;59251;51.326;12.370;2022-11-18T04:58:12;4.00;99.99
71436;SHT31;59251;51.326;12.370;2022-11-18T05:00:37;4.05;99.99
71436;SHT31;59251;51.326;12.370;2022-11-18T05:03:03;4.06;99.99
71436;SHT31;59251;51.326;12.370;2022-11-18T05:05:28;4.05;99.99
71436;SHT31;59251;51.326;12.370;2022-11-18T05:07:53;3.87;99.99
71436;SHT31;59251;51.326;12.370;2022-11-18T05:10:19;3.76;99.99
71436;SHT31;59251;51.326;12.370;2022-11-18T05:12:44;3.76;99.99
71436;SHT31;59251;51.326;12.370;2022-11-18T05:15:13;3.86;99.99
71436;SHT31;59251;51.326;12.370;2022-11-18T05:17:38;3.93;99.99
71436;SHT31;59251;51.326;12.370;2022-11-18T05:20:04;3.69;99.99
71436;SHT31;59251;51.326;12.370;2022-11-18T05:22:30;3.81;99.99
71436;SHT31;59251;51.326;12.370;2022-11-18T05:24:55;3.74;99.99
71436;SHT31;59251;51.326;12.370;2022-11-18T05:27:20;3.76;99.99
71436;SHT31;59251;51.326;12.370;2022-11-18T05:29:46;3.76;99.99
71436;SHT31;59251;51.326;12.370;2022-11-18T05:32:11;3.74;99.99
71436;SHT31;59251;51.326;12.370;2022-11-18T05:34:40;3.74;99.99
71436;SHT31;59251;51.326;12.370;2022-11-18T05:37:06;3.59;99.99
71436;SHT31;59251;51.326;12.370;2022-11-18T05:39:32;3.64;99.99
71436;SHT31;59251;51.326;12.370;2022-11-18T05:41:58;3.64;99.99
71436;SHT31;59251;51.326;12.370;2022-11-18T05:44:42;3.58;99.99
71436;SHT31;59251;51.326;12.370;2022-11-18T05:47:08;3.58;99.99
71436;SHT31;59251;51.326;12.370;2022-11-18T05:49:33;3.52;99.99
71436;SHT31;59251;51.326;12.370;2022-11-18T05:51:58;3.48;99.99
71436;SHT31;59251;51.326;12.370;2022-11-18T05:54:24;3.57;99.99
71436;SHT31;59251;51.326;12.370;2022-11-18T05:56:49;3.48;99.99
71436;SHT31;59251;51.326;12.370;2022-11-18T05:59:15;3.55;99.99
71436;SHT31;59251;51.326;12.370;2022-11-18T06:06:49;3.31;99.99
71436;SHT31;59251;51.326;12.370;2022-11-18T06:09:19;3.37;99.99
71436;SHT31;59251;51.326;12.370;2022-11-18T06:11:49;3.28;99.99
71436;SHT31;59251;51.326;12.370;2022-11-18T06:14:25;3.37;99.99
71436;SHT31;59251;51.326;12.370;2022-11-18T06:16:55;3.35;99.99
71436;SHT31;59251;51.326;12.370;2022-11-18T06:19:22;3.38;99.99
71436;SHT31;59251;51.326;12.370;2022-11-18T06:21:48;3.37;99.99
71436;SHT31;59251;51.326;12.370;2022-11-18T06:24:14;3.31;99.99
71436;SHT31;59251;51.326;12.370;2022-11-18T06:26:40;3.37;99.99
71436;SHT31;59251;51.326;12.370;2022-11-18T06:29:07;3.28;99.99
71436;SHT31;59251;51.326;12.370;2022-11-18T06:31:34;3.42;99.99
71436;SHT31;59251;51.326;12.370;2022-11-18T06:34:00;3.32;99.99
71436;SHT31;59251;51.326;12.370;2022-11-18T06:36:25;3.38;99.99
71436;SHT31;59251;51.326;12.370;2022-11-18T06:38:51;3.42;99.99
71436;SHT31;59251;51.326;12.370;2022-11-18T06:41:16;3.11;99.99
71436;SHT31;59251;51.326;12.370;2022-11-18T06:43:41;2.96;99.99
71436;SHT31;59251;51.326;12.370;2022-11-18T06:46:11;3.01;99.99
71436;SHT31;59251;51.326;12.370;2022-11-18T06:48:55;2.88;99.99
71436;SHT31;59251;51.326;12.370;2022-11-18T06:51:21;3.14;99.99
71436;SHT31;59251;51.326;12.370;2022-11-18T06:53:46;2.88;99.99
71436;SHT31;59251;51.326;12.370;2022-11-18T06:56:14;3.01;99.99
71436;SHT31;59251;51.326;12.370;2022-11-18T06:58:40;3.01;99.99
71436;SHT31;59251;51.326;12.370;2022-11-18T07:01:11;3.01;99.99
71436;SHT31;59251;51.326;12.370;2022-11-18T07:03:38;3.07;99.99
71436;SHT31;59251;51.326;12.370;2022-11-18T07:06:03;3.01;99.99
71436;SHT31;59251;51.326;12.370;2022-11-18T07:08:29;3.07;99.99
71436;SHT31;59251;51.326;12.370;2022-11-18T07:10:54;2.89;99.99
71436;SHT31;59251;51.326;12.370;2022-11-18T07:13:19;2.90;99.99
71436;SHT31;59251;51.326;12.370;2022-11-18T07:15:45;2.97;99.99
71436;SHT31;59251;51.326;12.370;2022-11-18T07:18:10;2.86;99.99
71436;SHT31;59251;51.326;12.370;2022-11-18T07:20:36;2.82;99.99
71436;SHT31;59251;51.326;12.370;2022-11-18T07:23:01;3.01;99.99
71436;SHT31;59251;51.326;12.370;2022-11-18T07:25:26;2.96;99.99
71436;SHT31;59251;51.326;12.370;2022-11-18T07:27:52;3.00;99.99
71436;SHT31;59251;51.326;12.370;2022-11-18T07:30:17;3.04;99.99
71436;SHT31;59251;51.326;12.370;2022-11-18T07:32:43;3.07;99.99
71436;SHT31;59251;51.326;12.370;2022-11-18T07:35:08;3.04;99.99
71436;SHT31;59251;51.326;12.370;2022-11-18T07:37:33;2.89;99.99
71436;SHT31;59251;51.326;12.370;2022-11-18T07:39:59;2.73;99.99
71436;SHT31;59251;51.326;12.370;2022-11-18T07:42:24;2.78;99.99
71436;SHT31;59251;51.326;12.370;2022-11-18T07:44:50;2.79;99.99
71436;SHT31;59251;51.326;12.370;2022-11-18T07:47:15;2.69;99.99
71436;SHT31;59251;51.326;12.370;2022-11-18T07:49:41;2.78;99.99
71436;SHT31;59251;51.326;12.370;2022-11-18T07:52:06;2.90;99.99
71436;SHT31;59251;51.326;12.370;2022-11-18T07:54:32;2.92;99.99
71436;SHT31;59251;51.326;12.370;2022-11-18T07:56:57;2.80;99.99
71436;SHT31;59251;51.326;12.370;2022-11-18T07:59:23;2.75;99.99
71436;SHT31;59251;51.326;12.370;2022-11-18T08:01:48;2.71;99.99
71436;SHT31;59251;51.326;12.370;2022-11-18T08:04:14;2.85;99.99
71436;SHT31;59251;51.326;12.370;2022-11-18T08:06:40;2.72;99.99
71436;SHT31;59251;51.326;12.370;2022-11-18T08:09:07;2.73;99.99
71436;SHT31;59251;51.326;12.370;2022-11-18T08:11:32;2.65;99.99
71436;SHT31;59251;51.326;12.370;2022-11-18T08:13:58;2.72;99.99
71436;SHT31;59251;51.326;12.370;2022-11-18T08:16:24;2.59;99.99
71436;SHT31;59251;51.326;12.370;2022-11-18T08:18:50;2.53;99.99
71436;SHT31;59251;51.326;12.370;2022-11-18T08:21:20;2.55;99.99
71436;SHT31;59251;51.326;12.370;2022-11-18T08:23:50;2.45;99.99
71436;SHT31;59251;51.326;12.370;2022-11-18T08:26:16;2.48;99.99
71436;SHT31;59251;51.326;12.370;2022-11-18T08:28:42;2.34;99.99
71436;SHT31;59251;51.326;12.370;2022-11-18T08:31:16;2.31;99.99
71436;SHT31;59251;51.326;12.370;2022-11-18T08:33:42;2.11;99.99
71436;SHT31;59251;51.326;12.370;2022-11-18T08:36:10;1.97;99.99
71436;SHT31;59251;51.326;12.370;2022-11-18T08:38:36;2.18;99.99
71436;SHT31;59251;51.326;12.370;2022-11-18T08:41:02;2.06;99.99
71436;SHT31;59251;51.326;12.370;2022-11-18T08:43:29;2.18;99.99
71436;SHT31;59251;51.326;12.370;2022-11-18T08:45:54;1.86;99.99
71436;SHT31;59251;51.326;12.370;2022-11-18T08:48:20;1.99;99.99
71436;SHT31;59251;51.326;12.370;2022-11-18T08:50:45;2.24;99.99
71436;SHT31;59251;51.326;12.370;2022-11-18T08:53:11;2.11;99.99
71436;SHT31;59251;51.326;12.370;2022-11-18T08:55:36;1.94;99.99
71436;SHT31;59251;51.326;12.370;2022-11-18T08:58:01;1.97;99.99
71436;SHT31;59251;51.326;12.370;2022-11-18T09:00:27;2.11;99.99
71436;SHT31;59251;51.326;12.370;2022-11-18T09:02:52;2.15;99.51
71436;SHT31;59251;51.326;12.370;2022-11-18T09:05:18;1.94;99.99
71436;SHT31;59251;51.326;12.370;2022-11-18T09:07:43;2.00;99.99
71436;SHT31;59251;51.326;12.370;2022-11-18T09:10:08;2.09;99.81
71436;SHT31;59251;51.326;12.370;2022-11-18T09:12:34;1.67;99.99
71436;SHT31;59251;51.326;12.370;2022-11-18T09:14:59;1.49;99.91
71436;SHT31;59251;51.326;12.370;2022-11-18T09:17:25;1.55;99.99
71436;SHT31;59251;51.326;12.370;2022-11-18T09:19:50;1.63;99.99
71436;SHT31;59251;51.326;12.370;2022-11-18T09:22:16;1.60;99.28
71436;SHT31;59251;51.326;12.370;2022-11-18T09:24:41;1.63;99.13
71436;SHT31;59251;51.326;12.370;2022-11-18T09:27:08;1.48;99.25
71436;SHT31;59251;51.326;12.370;2022-11-18T09:29:33;1.59;98.64
71436;SHT31;59251;51.326;12.370;2022-11-18T09:31:59;1.46;99.00
71436;SHT31;59251;51.326;12.370;2022-11-18T09:34:27;1.56;98.45
71436;SHT31;59251;51.326;12.370;2022-11-18T09:36:52;1.51;98.39
71436;SHT31;59251;51.326;12.370;2022-11-18T09:39:21;1.31;98.89
71436;SHT31;59251;51.326;12.370;2022-11-18T09:41:57;1.42;98.18
71436;SHT31;59251;51.326;12.370;2022-11-18T09:49:39;1.11;98.99
71436;SHT31;59251;51.326;12.370;2022-11-18T09:54:37;1.07;98.38
71436;SHT31;59251;51.326;12.370;2022-11-18T09:57:19;1.17;98.65
71436;SHT31;59251;51.326;12.370;2022-11-18T09:59:45;1.34;98.65
71436;SHT31;59251;51.326;12.370;2022-11-18T10:05:16;1.27;98.78
71436;SHT31;59251;51.326;12.370;2022-11-18T10:10:40;1.05;98.25
71436;SHT31;59251;51.326;12.370;2022-11-18T10:13:35;1.09;98.22
71436;SHT31;59251;51.326;12.370;2022-11-18T10:18:57;1.01;98.38
71436;SHT31;59251;51.326;12.370;2022-11-18T10:22:37;0.93;98.27
71436;SHT31;59251;51.326;12.370;2022-11-18T10:24:31;0.76;98.30
71436;SHT31;59251;51.326;12.370;2022-11-18T10:26:59;0.87;98.06
71436;SHT31;59251;51.326;12.370;2022-11-18T10:29:25;1.03;98.01
71436;SHT31;59251;51.326;12.370;2022-11-18T10:31:54;0.84;97.65
71436;SHT31;59251;51.326;12.370;2022-11-18T10:34:21;0.98;97.56
71436;SHT31;59251;51.326;12.370;2022-11-18T10:37:04;0.75;97.37
71436;SHT31;59251;51.326;12.370;2022-11-18T10:39:31;0.80;97.25
71436;SHT31;59251;51.326;12.370;2022-11-18T10:42:04;0.75;97.50
71436;SHT31;59251;51.326;12.370;2022-11-18T10:44:39;0.59;97.05
71436;SHT31;59251;51.326;12.370;2022-11-18T10:47:25;0.81;96.58
71436;SHT31;59251;51.326;12.370;2022-11-18T10:49:52;0.80;95.52
71436;SHT31;59251;51.326;12.370;2022-11-18T10:52:18;0.84;95.71
71436;SHT31;59251;51.326;12.370;2022-11-18T10:54:44;0.79;96.00
71436;SHT31;59251;51.326;12.370;2022-11-18T11:02:14;0.72;97.49
71436;SHT31;59251;51.326;12.370;2022-11-18T11:04:40;0.70;96.25
71436;SHT31;59251;51.326;12.370;2022-11-18T11:07:33;0.87;96.50
71436;SHT31;59251;51.326;12.370;2022-11-18T11:12:34;0.80;96.25
71436;SHT31;59251;51.326;12.370;2022-11-18T11:15:11;1.07;95.96
71436;SHT31;59251;51.326;12.370;2022-11-18T11:17:41;0.63;98.49
71436;SHT31;59251;51.326;12.370;2022-11-18T11:22:37;0.57;99.99
71436;SHT31;59251;51.326;12.370;2022-11-18T11:25:17;0.53;99.99
71436;SHT31;59251;51.326;12.370;2022-11-18T11:30:20;0.59;99.99
71436;SHT31;59251;51.326;12.370;2022-11-18T11:41:23;0.73;99.64
71436;SHT31;59251;51.326;12.370;2022-11-18T11:50:18;0.73;99.99
71436;SHT31;59251;51.326;12.370;2022-11-18T11:58:54;0.45;99.99
71436;SHT31;59251;51.326;12.370;2022-11-18T12:06:44;0.55;99.99
71436;SHT31;59251;51.326;12.370;2022-11-18T12:09:20;0.77;99.99
71436;SHT31;59251;51.326;12.370;2022-11-18T12:11:56;0.84;96.88
71436;SHT31;59251;51.326;12.370;2022-11-18T12:14:41;0.65;96.40
71436;SHT31;59251;51.326;12.370;2022-11-18T12:19:40;0.44;99.33
71436;SHT31;59251;51.326;12.370;2022-11-18T12:22:06;0.41;99.66
71436;SHT31;59251;51.326;12.370;2022-11-18T12:27:05;0.55;98.36
71436;SHT31;59251;51.326;12.370;2022-11-18T12:29:41;0.49;97.30
71436;SHT31;59251;51.326;12.370;2022-11-18T12:32:30;0.48;97.92
71436;SHT31;59251;51.326;12.370;2022-11-18T12:35:20;0.69;97.26
71436;SHT31;59251;51.326;12.370;2022-11-18T12:43:00;0.77;97.00
71436;SHT31;59251;51.326;12.370;2022-11-18T12:50:55;0.88;96.25
71436;SHT31;59251;51.326;12.370;2022-11-18T12:55:56;0.57;95.86
71436;SHT31;59251;51.326;12.370;2022-11-18T12:58:23;0.42;96.37
71436;SHT31;59251;51.326;12.370;2022-11-18T13:00:49;0.48;96.56
71436;SHT31;59251;51.326;12.370;2022-11-18T13:03:22;0.55;96.50
71436;SHT31;59251;51.326;12.370;2022-11-18T13:05:50;0.48;97.20
71436;SHT31;59251;51.326;12.370;2022-11-18T13:08:22;0.41;97.15
71436;SHT31;59251;51.326;12.370;2022-11-18T13:10:51;0.41;97.14
71436;SHT31;59251;51.326;12.370;2022-11-18T13:13:38;0.35;97.34
71436;SHT31;59251;51.326;12.370;2022-11-18T13:16:22;0.33;97.05
71436;SHT31;59251;51.326;12.370;2022-11-18T13:19:07;0.26;96.73
71436;SHT31;59251;51.326;12.370;2022-11-18T13:21:32;0.33;96.38
71436;SHT31;59251;51.326;12.370;2022-11-18T13:24:18;0.35;96.45
71436;SHT31;59251;51.326;12.370;2022-11-18T13:26:46;0.19;95.85
71436;SHT31;59251;51.326;12.370;2022-11-18T13:34:44;0.07;95.06
71436;SHT31;59251;51.326;12.370;2022-11-18T13:37:19;0.19;94.60
71436;SHT31;59251;51.326;12.370;2022-11-18T13:39:45;0.09;94.52
71436;SHT31;59251;51.326;12.370;2022-11-18T13:42:24;0.09;94.60
71436;SHT31;59251;51.326;12.370;2022-11-18T13:47:23;0.05;94.03
71436;SHT31;59251;51.326;12.370;2022-11-18T13:49:58;0.09;94.67
71436;SHT31;59251;51.326;12.370;2022-11-18T13:52:49;0.15;95.44
71436;SHT31;59251;51.326;12.370;2022-11-18T13:55:22;0.30;95.80
71436;SHT31;59251;51.326;12.370;2022-11-18T13:58:02;0.32;95.66
71436;SHT31;59251;51.326;12.370;2022-11-18T14:00:29;0.19;96.01
71436;SHT31;59251;51.326;12.370;2022-11-18T14:03:02;0.05;95.92
71436;SHT31;59251;51.326;12.370;2022-11-18T14:05:28;-0.26;96.57
71436;SHT31;59251;51.326;12.370;2022-11-18T14:08:05;-0.42;96.46
71436;SHT31;59251;51.326;12.370;2022-11-18T14:10:41;-0.27;97.68
71436;SHT31;59251;51.326;12.370;2022-11-18T14:13:34;-0.40;96.81
71436;SHT31;59251;51.326;12.370;2022-11-18T14:18:48;-0.45;97.27
71436;SHT31;59251;51.326;12.370;2022-11-18T14:21:29;-0.38;96.90
71436;SHT31;59251;51.326;12.370;2022-11-18T14:23:56;-0.42;97.23
71436;SHT31;59251;51.326;12.370;2022-11-18T14:26:33;-0.41;97.41
71436;SHT31;59251;51.326;12.370;2022-11-18T14:29:13;-0.48;97.18
71436;SHT31;59251;51.326;12.370;2022-11-18T14:31:41;-0.53;96.59
71436;SHT31;59251;51.326;12.370;2022-11-18T14:34:24;-0.37;96.93
71436;SHT31;59251;51.326;12.370;2022-11-18T14:36:51;-0.45;96.39
71436;SHT31;59251;51.326;12.370;2022-11-18T14:39:24;-0.64;96.35
71436;SHT31;59251;51.326;12.370;2022-11-18T14:41:50;-0.53;96.58
71436;SHT31;59251;51.326;12.370;2022-11-18T14:44:17;-0.60;95.74
71436;SHT31;59251;51.326;12.370;2022-11-18T14:46:52;-0.62;97.74
71436;SHT31;59251;51.326;12.370;2022-11-18T14:49:21;-0.67;96.86
71436;SHT31;59251;51.326;12.370;2022-11-18T14:51:48;-0.65;95.91
71436;SHT31;59251;51.326;12.370;2022-11-18T14:54:15;-0.65;96.18
71436;SHT31;59251;51.326;12.370;2022-11-18T14:56:41;-0.64;96.55
71436;SHT31;59251;51.326;12.370;2022-11-18T14:59:12;-0.62;95.63
71436;SHT31;59251;51.326;12.370;2022-11-18T15:01:39;-0.53;95.01
71436;SHT31;59251;51.326;12.370;2022-11-18T15:04:05;-0.61;94.96
71436;SHT31;59251;51.326;12.370;2022-11-18T15:06:31;-0.44;95.51
71436;SHT31;59251;51.326;12.370;2022-11-18T15:08:56;-0.53;94.75
71436;SHT31;59251;51.326;12.370;2022-11-18T15:11:22;-0.56;94.30
71436;SHT31;59251;51.326;12.370;2022-11-18T15:13:47;-0.54;94.94
71436;SHT31;59251;51.326;12.370;2022-11-18T15:18:43;-0.42;95.66
71436;SHT31;59251;51.326;12.370;2022-11-18T15:21:09;-0.48;95.64
71436;SHT31;59251;51.326;12.370;2022-11-18T15:23:35;-0.58;95.27
71436;SHT31;59251;51.326;12.370;2022-11-18T15:26:02;-0.74;96.79
71436;SHT31;59251;51.326;12.370;2022-11-18T15:28:36;-0.69;97.31
71436;SHT31;59251;51.326;12.370;2022-11-18T15:31:04;-0.74;96.54
71436;SHT31;59251;51.326;12.370;2022-11-18T15:33:30;-0.67;96.52
71436;SHT31;59251;51.326;12.370;2022-11-18T15:35:55;-0.62;96.51
71436;SHT31;59251;51.326;12.370;2022-11-18T15:38:20;-0.78;94.85
71436;SHT31;59251;51.326;12.370;2022-11-18T15:40:46;-0.58;95.46
71436;SHT31;59251;51.326;12.370;2022-11-18T15:43:11;-0.78;94.71
71436;SHT31;59251;51.326;12.370;2022-11-18T15:45:37;-0.69;95.19
71436;SHT31;59251;51.326;12.370;2022-11-18T15:48:02;-0.71;95.38
71436;SHT31;59251;51.326;12.370;2022-11-18T15:50:28;-0.71;95.35
71436;SHT31;59251;51.326;12.370;2022-11-18T15:52:53;-0.78;95.56
71436;SHT31;59251;51.326;12.370;2022-11-18T15:55:19;-0.67;95.79
71436;SHT31;59251;51.326;12.370;2022-11-18T15:57:45;-0.65;95.31
71436;SHT31;59251;51.326;12.370;2022-11-18T16:00:11;-0.51;95.91
71436;SHT31;59251;51.326;12.370;2022-11-18T16:02:37;-0.58;95.21
71436;SHT31;59251;51.326;12.370;2022-11-18T16:05:02;-0.64;94.93
71436;SHT31;59251;51.326;12.370;2022-11-18T16:07:28;-0.60;95.34
71436;SHT31;59251;51.326;12.370;2022-11-18T16:09:53;-0.67;95.30
71436;SHT31;59251;51.326;12.370;2022-11-18T16:12:37;-0.50;96.49
71436;SHT31;59251;51.326;12.370;2022-11-18T16:15:13;-0.64;95.98
71436;SHT31;59251;51.326;12.370;2022-11-18T16:17:58;-0.71;96.17
71436;SHT31;59251;51.326;12.370;2022-11-18T16:20:24;-0.71;96.23
71436;SHT31;59251;51.326;12.370;2022-11-18T16:22:50;-0.64;96.86
71436;SHT31;59251;51.326;12.370;2022-11-18T16:25:19;-0.62;96.95
71436;SHT31;59251;51.326;12.370;2022-11-18T16:27:44;-0.68;96.71
71436;SHT31;59251;51.326;12.370;2022-11-18T16:30:10;-0.62;97.18
71436;SHT31;59251;51.326;12.370;2022-11-18T16:32:55;-0.74;96.79
71436;SHT31;59251;51.326;12.370;2022-11-18T16:35:21;-0.75;96.51
71436;SHT31;59251;51.326;12.370;2022-11-18T16:37:47;-0.72;96.66
71436;SHT31;59251;51.326;12.370;2022-11-18T16:40:12;-0.67;96.87
71436;SHT31;59251;51.326;12.370;2022-11-18T16:42:38;-0.67;96.61
71436;SHT31;59251;51.326;12.370;2022-11-18T16:45:04;-0.62;96.09
71436;SHT31;59251;51.326;12.370;2022-11-18T16:47:29;-0.60;95.67
71436;SHT31;59251;51.326;12.370;2022-11-18T16:49:55;-0.65;95.79
71436;SHT31;59251;51.326;12.370;2022-11-18T16:52:20;-0.47;96.17
71436;SHT31;59251;51.326;12.370;2022-11-18T16:54:46;-0.48;95.39
71436;SHT31;59251;51.326;12.370;2022-11-18T16:57:11;-0.40;95.60
71436;SHT31;59251;51.326;12.370;2022-11-18T16:59:37;-0.48;94.50
71436;SHT31;59251;51.326;12.370;2022-11-18T17:02:02;-0.38;94.56
71436;SHT31;59251;51.326;12.370;2022-11-18T17:04:29;-0.41;94.39
71436;SHT31;59251;51.326;12.370;2022-11-18T17:06:55;-0.31;94.59
71436;SHT31;59251;51.326;12.370;2022-11-18T17:09:22;-0.30;94.20
71436;SHT31;59251;51.326;12.370;2022-11-18T17:11:49;-0.37;93.62
71436;SHT31;59251;51.326;12.370;2022-11-18T17:14:15;-0.40;93.77
71436;SHT31;59251;51.326;12.370;2022-11-18T17:16:40;-0.30;94.43
71436;SHT31;59251;51.326;12.370;2022-11-18T17:19:06;-0.37;93.70
71436;SHT31;59251;51.326;12.370;2022-11-18T17:21:31;-0.21;94.08
71436;SHT31;59251;51.326;12.370;2022-11-18T17:24:03;-0.33;93.50
71436;SHT31;59251;51.326;12.370;2022-11-18T17:26:28;-0.38;93.57
71436;SHT31;59251;51.326;12.370;2022-11-18T17:28:54;-0.42;93.26
71436;SHT31;59251;51.326;12.370;2022-11-18T17:31:21;-0.38;93.39
71436;SHT31;59251;51.326;12.370;2022-11-18T17:33:48;-0.30;93.72
71436;SHT31;59251;51.326;12.370;2022-11-18T17:36:16;-0.40;93.15
71436;SHT31;59251;51.326;12.370;2022-11-18T17:38:44;-0.44;92.93